Time;durP1;ratioP1;P1;durP2;ratioP2;P2;SDS_P1;SDS_P2;PMS_P1;PMS_P2;Temp;Humidity;BMP_temperature;BMP_pressure;BME280_temperature;BME280_humidity;BME280_pressure;Samples;Min_cycle;Max_cycle;Signal;HPM_P1;HPM_P2
2023/05/04 00:03:03;;;;;;;10.40;5.57;;;;;;;1.28;100.00;97382.38;10497124;28;20191;-64
2023/05/04 00:08:03;;;;;;;7.47;4.67;;;;;;;1.16;100.00;97381.28;10497113;28;20252;-64
2023/05/04 00:13:04;;;;;;;10.97;6.30;;;;;;;1.11;100.00;97386.69;10496742;28;20228;-63
2023/05/04 00:18:04;;;;;;;8.73;5.90;;;;;;;1.15;100.00;97383.03;10496852;28;20567;-64
2023/05/04 00:23:05;;;;;;;17.77;6.20;;;;;;;1.09;100.00;97382.50;10495670;28;20596;-63
2023/05/04 00:28:05;;;;;;;10.90;5.53;;;;;;;1.06;100.00;97380.94;10496193;28;20774;-63
2023/05/04 00:33:06;;;;;;;9.90;5.70;;;;;;;1.08;100.00;97367.97;10478279;28;20297;-64
2023/05/04 00:38:06;;;;;;;8.27;5.67;;;;;;;1.04;100.00;97367.25;10495857;28;20716;-64
2023/05/04 00:43:07;;;;;;;9.73;6.67;;;;;;;0.94;100.00;97361.78;10477870;28;20640;-63
2023/05/04 00:48:07;;;;;;;14.33;7.00;;;;;;;0.85;100.00;97355.34;10495492;28;20770;-64
2023/05/04 00:53:09;;;;;;;11.83;6.83;;;;;;;0.95;100.00;97349.69;10460888;28;20691;-64
2023/05/04 00:58:10;;;;;;;7.87;5.83;;;;;;;0.97;100.00;97358.22;10477378;28;20210;-64
2023/05/04 01:03:10;;;;;;;10.07;6.03;;;;;;;0.92;100.00;97342.13;10494748;28;20191;-64
2023/05/04 01:08:16;;;;;;;7.43;5.20;;;;;;;0.94;100.00;97348.88;10476817;28;20343;-64
2023/05/04 01:13:20;;;;;;;12.57;6.23;;;;;;;0.93;100.00;97351.53;10476806;28;20284;-64
2023/05/04 01:18:22;;;;;;;8.80;6.13;;;;;;;0.92;100.00;97361.03;10494609;28;20214;-64
2023/05/04 01:23:22;;;;;;;9.27;5.90;;;;;;;0.89;100.00;97348.28;10494259;28;20201;-64
2023/05/04 01:28:40;;;;;;;11.83;5.87;;;;;;;0.88;100.00;97344.88;10476467;28;20716;-64
2023/05/04 01:33:41;;;;;;;9.00;5.97;;;;;;;0.93;100.00;97347.19;10476239;28;20611;-64
2023/05/04 01:38:42;;;;;;;9.83;6.03;;;;;;;0.90;100.00;97347.34;10494118;28;20218;-64
2023/05/04 01:43:42;;;;;;;11.80;5.97;;;;;;;0.85;100.00;97336.47;10493832;28;20187;-63
2023/05/04 01:48:43;;;;;;;8.20;6.80;;;;;;;0.78;100.00;97348.00;10475917;28;20217;-64
2023/05/04 01:53:43;;;;;;;11.57;7.33;;;;;;;0.73;100.00;97339.69;10493704;28;20225;-64
2023/05/04 01:58:43;;;;;;;13.97;7.27;;;;;;;0.74;100.00;97336.19;10493695;28;20218;-64
2023/05/04 02:03:44;;;;;;;11.13;5.10;;;;;;;0.65;100.00;97330.59;10475577;28;20210;-64
2023/05/04 02:08:45;;;;;;;8.10;4.90;;;;;;;0.69;100.00;97337.28;10493192;28;20244;-64
2023/05/04 02:13:45;;;;;;;12.47;7.43;;;;;;;0.63;100.00;97324.69;10475587;28;20216;-63
2023/05/04 02:18:45;;;;;;;12.20;7.83;;;;;;;0.65;100.00;97333.16;10493230;28;20220;-64
2023/05/04 02:23:46;;;;;;;11.87;7.60;;;;;;;0.71;100.00;97330.28;10493038;28;20704;-64
2023/05/04 02:28:46;;;;;;;15.97;7.27;;;;;;;0.63;100.00;97329.00;10492932;28;20215;-64
2023/05/04 02:33:46;;;;;;;39.53;15.67;;;;;;;0.60;100.00;97321.41;10474846;28;20219;-64
2023/05/04 02:38:48;;;;;;;9.27;6.03;;;;;;;0.48;100.00;97317.75;10474897;28;20735;-64
2023/05/04 02:43:49;;;;;;;7.90;5.77;;;;;;;0.78;100.00;97322.22;10492714;28;20224;-64
2023/05/04 02:48:49;;;;;;;7.80;5.33;;;;;;;0.67;100.00;97327.94;10478102;28;20223;-64
2023/05/04 02:53:50;;;;;;;13.70;6.77;;;;;;;0.73;100.00;97321.63;10458598;28;20213;-64
2023/05/04 02:58:50;;;;;;;11.77;5.93;;;;;;;0.79;100.00;97318.72;10458527;28;20211;-63
2023/05/04 03:03:51;;;;;;;10.77;6.63;;;;;;;0.81;100.00;97319.47;10474197;28;20210;-63
2023/05/04 03:08:51;;;;;;;8.80;6.07;;;;;;;0.76;100.00;97318.91;10481631;28;20234;-64
2023/05/04 03:13:52;;;;;;;17.10;6.73;;;;;;;0.81;100.00;97322.91;10481616;28;20742;-64
2023/05/04 03:18:53;;;;;;;11.30;6.90;;;;;;;0.86;100.00;97318.31;10481165;28;20218;-64
2023/05/04 03:23:53;;;;;;;19.10;8.10;;;;;;;0.83;100.00;97322.81;10481159;28;20669;-64
2023/05/04 03:28:53;;;;;;;7.77;5.57;;;;;;;0.97;100.00;97319.50;10498714;28;20210;-64
2023/05/04 03:33:55;;;;;;;10.20;7.07;;;;;;;0.90;100.00;97324.16;10480738;28;20218;-64
2023/05/04 03:38:56;;;;;;;13.70;6.10;;;;;;;0.92;100.00;97309.44;10498437;28;20712;-64
2023/05/04 03:43:57;;;;;;;13.77;5.83;;;;;;;1.07;100.00;97310.34;10480101;28;20236;-64
2023/05/04 03:48:57;;;;;;;11.07;6.17;;;;;;;1.02;100.00;97314.94;10497987;28;20578;-64
2023/05/04 03:53:58;;;;;;;9.40;6.17;;;;;;;1.08;100.00;97313.78;10479840;28;20225;-64
2023/05/04 03:58:58;;;;;;;13.97;5.87;;;;;;;1.14;100.00;97322.00;10496426;28;20232;-64
2023/05/04 04:04:03;;;;;;;10.60;4.93;;;;;;;1.20;100.00;97313.09;10479068;28;20265;-64
2023/05/04 04:09:04;;;;;;;11.00;5.70;;;;;;;1.29;100.00;97319.50;10495640;28;20260;-64
2023/05/04 04:14:04;;;;;;;17.67;5.53;;;;;;;1.25;100.00;97319.66;10478889;28;20305;-64
2023/05/04 04:19:05;;;;;;;11.37;5.40;;;;;;;1.32;100.00;97309.84;10492868;28;20239;-64
2023/05/04 04:24:06;;;;;;;9.73;6.20;;;;;;;1.34;100.00;97310.59;10496813;28;20247;-65
2023/05/04 04:29:06;;;;;;;17.23;5.13;;;;;;;1.44;100.00;97305.78;10495838;28;20825;-64
2023/05/04 04:34:06;;;;;;;7.73;4.13;;;;;;;1.51;100.00;97303.69;10468649;28;20678;-64
2023/05/04 04:39:07;;;;;;;8.47;5.50;;;;;;;1.57;100.00;97313.66;10454766;28;20766;-64
2023/05/04 04:44:07;;;;;;;10.40;6.27;;;;;;;1.81;100.00;97303.69;10482985;28;20661;-64
2023/05/04 04:49:08;;;;;;;12.90;5.30;;;;;;;2.13;100.00;97309.59;10457883;28;20313;-64
2023/05/04 04:54:08;;;;;;;8.90;4.80;;;;;;;2.54;100.00;97304.66;10466878;28;20212;-65
2023/05/04 04:59:09;;;;;;;8.33;4.50;;;;;;;3.00;100.00;97305.28;10472647;28;20676;-65
2023/05/04 05:04:09;;;;;;;10.30;4.80;;;;;;;3.34;100.00;97298.00;10474522;28;20656;-65
2023/05/04 05:09:10;;;;;;;11.40;5.27;;;;;;;3.49;100.00;97297.94;10490460;22;20740;-67
2023/05/04 05:14:11;;;;;;;8.33;4.27;;;;;;;3.79;100.00;97299.50;10492917;28;20689;-67
2023/05/04 05:19:12;;;;;;;11.97;4.97;;;;;;;4.03;100.00;97300.50;10494513;28;20659;-67
2023/05/04 05:24:12;;;;;;;12.73;4.53;;;;;;;4.23;100.00;97300.94;10494279;28;20219;-67
2023/05/04 05:29:12;;;;;;;10.07;4.00;;;;;;;4.55;100.00;97292.72;10494076;28;20697;-66
2023/05/04 05:34:13;;;;;;;9.50;4.40;;;;;;;4.99;100.00;97292.28;10494298;28;20217;-67
2023/05/04 05:39:13;;;;;;;11.07;4.40;;;;;;;5.40;100.00;97284.25;10493765;28;20207;-66
2023/05/04 05:44:13;;;;;;;8.83;4.30;;;;;;;5.90;100.00;97266.75;10494139;28;20191;-67
2023/05/04 05:49:14;;;;;;;6.57;4.20;;;;;;;6.45;100.00;97256.59;10493645;28;20237;-66
2023/05/04 05:54:14;;;;;;;6.17;3.80;;;;;;;6.99;97.08;97234.19;10475695;28;20203;-67
2023/05/04 05:59:15;;;;;;;7.50;3.30;;;;;;;7.90;90.77;97219.09;10460049;28;20243;-67
2023/05/04 06:04:15;;;;;;;9.03;3.37;;;;;;;9.16;84.90;97198.84;10451987;28;20218;-66
2023/05/04 06:09:15;;;;;;;8.50;3.80;;;;;;;11.07;75.84;97134.97;10452060;28;20772;-66
2023/05/04 06:14:16;;;;;;;9.48;3.30;;;;;;;12.60;66.49;97063.72;10454962;28;20774;-66
2023/05/04 06:19:16;;;;;;;4.68;2.30;;;;;;;13.28;58.62;96975.03;10484549;28;20657;-66
2023/05/04 06:24:17;;;;;;;5.40;2.25;;;;;;;13.37;59.21;97016.97;10496299;28;20180;-66
2023/05/04 06:29:17;;;;;;;7.13;2.20;;;;;;;14.09;55.18;96965.25;10479739;28;20249;-66
2023/05/04 06:34:18;;;;;;;5.78;2.40;;;;;;;14.26;52.04;96927.25;10478704;28;20224;-66
2023/05/04 06:39:18;;;;;;;4.32;2.20;;;;;;;15.10;50.92;96937.03;10479147;28;20230;-67
2023/05/04 06:44:18;;;;;;;11.57;2.75;;;;;;;15.16;47.96;96890.63;10478328;28;20275;-67
2023/05/04 06:49:19;;;;;;;6.78;2.17;;;;;;;15.47;48.16;96916.84;10472305;28;20216;-67
2023/05/04 06:54:19;;;;;;;4.78;2.17;;;;;;;14.40;48.22;96893.25;10477792;28;20241;-66
2023/05/04 06:59:20;;;;;;;6.65;2.78;;;;;;;13.57;50.75;96940.28;10479924;28;20218;-66
2023/05/04 07:04:22;;;;;;;5.40;2.50;;;;;;;15.00;47.32;96896.06;10498159;28;20215;-66
2023/05/04 07:09:22;;;;;;;5.07;2.13;;;;;;;13.90;48.21;96901.47;10497871;28;20247;-66
2023/05/04 07:14:22;;;;;;;6.55;2.42;;;;;;;13.56;49.40;96933.34;10473644;28;20234;-66
2023/05/04 07:19:23;;;;;;;6.22;3.30;;;;;;;13.38;50.46;96952.00;10474010;28;20264;-66
2023/05/04 07:24:23;;;;;;;2.72;1.92;;;;;;;13.04;49.69;96921.44;10473957;28;20183;-66
2023/05/04 07:29:24;;;;;;;4.57;2.58;;;;;;;12.93;50.96;96930.50;10456094;28;20265;-67
2023/05/04 07:34:24;;;;;;;8.15;2.78;;;;;;;13.33;50.09;96930.59;10461031;28;20298;-65
2023/05/04 07:39:24;;;;;;;9.60;3.00;;;;;;;13.02;51.09;96953.16;10476329;28;20222;-65
2023/05/04 07:44:25;;;;;;;4.22;2.35;;;;;;;14.38;48.64;96935.59;10462391;28;20192;-66
2023/05/04 07:49:26;;;;;;;7.07;2.75;;;;;;;14.20;48.27;96912.16;10470777;28;20243;-66
2023/05/04 07:54:26;;;;;;;7.25;2.60;;;;;;;13.80;48.63;96907.91;10495071;28;20590;-66
2023/05/04 07:59:26;;;;;;;3.75;2.25;;;;;;;14.00;49.38;96935.47;10496123;28;20199;-66
2023/05/04 08:04:27;;;;;;;4.63;2.45;;;;;;;13.82;48.86;96914.66;10495735;28;20195;-65
2023/05/04 08:09:27;;;;;;;19.65;5.13;;;;;;;15.30;46.91;96916.22;10495459;28;20245;-66
2023/05/04 08:14:28;;;;;;;6.47;2.35;;;;;;;15.60;46.19;96910.09;10495694;28;20310;-66
2023/05/04 08:19:28;;;;;;;7.57;2.65;;;;;;;14.97;46.15;96878.78;10494228;28;20230;-66
2023/05/04 08:24:29;;;;;;;6.68;2.67;;;;;;;13.83;49.65;96928.66;10488527;28;20195;-66
2023/05/04 08:29:30;;;;;;;5.40;2.50;;;;;;;15.10;46.56;96900.09;10467881;28;20208;-66
2023/05/04 08:34:30;;;;;;;6.57;3.22;;;;;;;14.14;47.91;96894.41;10463199;28;20224;-66
2023/05/04 08:39:31;;;;;;;7.03;2.80;;;;;;;14.39;48.63;96921.41;10453105;28;20333;-66
2023/05/04 08:44:33;;;;;;;5.90;2.70;;;;;;;14.47;46.85;96867.00;10457685;28;20215;-66
2023/05/04 08:49:33;;;;;;;4.13;2.33;;;;;;;14.63;44.86;96822.88;10461748;28;20216;-67
2023/05/04 08:54:34;;;;;;;6.53;2.40;;;;;;;15.13;46.06;96881.25;10451428;28;20220;-67
2023/05/04 08:59:35;;;;;;;7.57;2.63;;;;;;;15.32;45.54;96877.25;10477525;28;20244;-67
2023/05/04 09:04:35;;;;;;;6.93;2.40;;;;;;;14.74;44.89;96841.91;10475093;28;20330;-66
2023/05/04 09:09:36;;;;;;;5.28;2.10;;;;;;;15.22;44.84;96854.75;10454147;28;20255;-66
2023/05/04 09:14:36;;;;;;;7.05;2.40;;;;;;;17.71;41.67;96854.94;10456599;28;20223;-66
2023/05/04 09:19:37;;;;;;;7.63;2.15;;;;;;;15.38;41.33;96762.19;10466763;28;20235;-66
2023/05/04 09:24:38;;;;;;;6.85;2.50;;;;;;;14.68;43.72;96803.88;10466630;28;20677;-67
2023/05/04 09:29:41;;;;;;;4.47;2.50;;;;;;;16.74;42.54;96849.50;10462811;28;20218;-66
2023/05/04 09:34:49;;;;;;;5.65;2.17;;;;;;;17.47;40.06;96790.88;10491588;28;20223;-66
2023/05/04 09:39:54;;;;;;;7.10;2.90;;;;;;;17.61;41.76;96847.38;10472999;28;20208;-67
2023/05/04 09:44:59;;;;;;;5.93;2.50;;;;;;;15.11;44.10;96838.38;10450271;28;20200;-67
2023/05/04 09:50:21;;;;;;;5.50;2.30;;;;;;;16.04;41.79;96796.41;10487461;28;20241;-67
2023/05/04 09:55:21;;;;;;;7.72;2.80;;;;;;;17.04;40.23;96793.72;10492777;28;20329;-66
2023/05/04 10:00:22;;;;;;;5.38;1.90;;;;;;;17.07;37.23;96703.34;10462126;28;20302;-68
2023/05/04 10:05:23;;;;;;;9.75;2.67;;;;;;;15.90;39.86;96744.47;10459530;28;20195;-68
2023/05/04 10:10:24;;;;;;;5.75;1.88;;;;;;;16.17;37.61;96678.63;10440913;28;20330;-68
2023/05/04 10:15:25;;;;;;;6.28;2.30;;;;;;;16.10;38.56;96701.56;10473636;28;20247;-67
2023/05/04 10:20:37;;;;;;;6.20;2.35;;;;;;;17.96;38.04;96762.50;10457501;28;20573;-68
2023/05/04 10:25:54;;;;;;;6.40;2.22;;;;;;;20.09;37.94;96825.97;10483890;28;20184;-68
2023/05/04 10:30:56;;;;;;;6.65;2.40;;;;;;;20.44;36.82;96783.78;10459263;28;20286;-67
2023/05/04 10:35:57;;;;;;;10.00;2.25;;;;;;;21.00;38.14;96823.84;10463991;28;20220;-66
2023/05/04 10:40:57;;;;;;;4.97;2.10;;;;;;;22.48;33.81;96740.91;10468455;28;20701;-68
2023/05/04 10:45:59;;;;;;;6.03;2.15;;;;;;;23.59;31.46;96707.13;10495859;28;20195;-67
2023/05/04 10:51:00;;;;;;;3.95;2.50;;;;;;;22.42;31.19;96653.75;10498869;28;20222;-68
2023/05/04 10:56:00;;;;;;;5.05;2.33;;;;;;;23.61;33.67;96771.88;10495662;28;20219;-67
2023/05/04 11:01:10;;;;;;;7.72;2.42;;;;;;;24.27;33.11;96776.81;10498852;28;20290;-67
2023/05/04 11:06:29;;;;;;;8.30;2.72;;;;;;;23.24;35.89;96789.03;10497046;28;20683;-67
2023/05/04 11:11:35;;;;;;;10.95;2.58;;;;;;;25.21;30.49;96698.31;10517689;22;20969;-68
2023/05/04 11:16:35;;;;;;;11.10;2.60;;;;;;;24.45;32.30;96720.31;10496232;28;20557;-68
2023/05/04 11:21:35;;;;;;;6.50;2.47;;;;;;;23.86;30.06;96619.88;10496684;28;20216;-69
2023/05/04 11:26:47;;;;;;;6.07;2.28;;;;;;;23.89;31.63;96676.63;10497975;28;20202;-69
2023/05/04 11:31:57;;;;;;;7.18;2.20;;;;;;;24.59;33.33;96752.16;10494318;28;20223;-69
2023/05/04 11:36:57;;;;;;;4.70;2.30;;;;;;;25.02;30.91;96681.75;10496130;28;20220;-68
2023/05/04 11:41:59;;;;;;;4.18;2.10;;;;;;;25.27;29.68;96651.72;10493868;28;20283;-68
2023/05/04 11:47:00;;;;;;;7.82;2.28;;;;;;;25.04;31.80;96719.03;10475471;28;20618;-69
2023/05/04 11:52:07;;;;;;;10.23;2.45;;;;;;;24.30;32.17;96685.28;10437291;28;20246;-68
2023/05/04 11:57:08;;;;;;;6.07;2.15;;;;;;;25.46;30.75;96686.28;10454982;28;20635;-68
2023/05/04 12:02:15;;;;;;;6.13;2.33;;;;;;;25.07;30.87;96683.69;10463557;28;20250;-68
2023/05/04 12:07:15;;;;;;;6.25;2.50;;;;;;;25.35;30.59;96677.31;10466640;28;20435;-68
2023/05/04 12:12:17;;;;;;;12.18;2.30;;;;;;;24.14;28.14;96505.72;10435390;28;20236;-68
2023/05/04 12:17:19;;;;;;;4.88;2.03;;;;;;;18.94;34.77;96559.25;10436420;28;20245;-68
2023/05/04 12:22:31;;;;;;;7.47;2.20;;;;;;;20.25;33.97;96599.31;10458883;28;20303;-67
2023/05/04 12:27:32;;;;;;;9.20;2.53;;;;;;;19.55;34.59;96583.56;10492238;28;20195;-67
2023/05/04 12:32:53;;;;;;;5.45;2.20;;;;;;;22.83;32.29;96646.56;10501441;28;20276;-67
2023/05/04 12:37:54;;;;;;;3.65;2.00;;;;;;;22.40;32.75;96651.31;10494428;28;20214;-67
2023/05/04 12:42:54;;;;;;;5.80;2.08;;;;;;;22.73;32.49;96649.03;10493320;28;20684;-66
2023/05/04 12:47:54;;;;;;;5.88;2.42;;;;;;;19.05;37.22;96627.63;10490172;28;20233;-66
2023/05/04 12:52:55;;;;;;;7.93;2.83;;;;;;;19.24;36.26;96619.75;10493450;28;20223;-66
2023/05/04 12:57:56;;;;;;;7.05;1.98;;;;;;;20.95;33.29;96583.97;10494442;28;20195;-66
2023/05/04 13:02:59;;;;;;;14.95;2.25;;;;;;;19.56;37.74;96656.97;10493157;28;20220;-66
2023/05/04 13:08:00;;;;;;;5.20;2.42;;;;;;;19.38;36.83;96623.16;10493233;28;20625;-65
2023/05/04 13:13:00;;;;;;;9.40;2.33;;;;;;;20.96;36.49;96678.84;10492019;28;20357;-65
2023/05/04 13:18:00;;;;;;;7.30;2.58;;;;;;;20.77;33.40;96579.53;10493209;28;20194;-65
2023/05/04 13:23:01;;;;;;;3.58;2.20;;;;;;;20.19;35.45;96610.84;10493346;28;20326;-67
2023/05/04 13:28:10;;;;;;;4.97;1.88;;;;;;;20.69;37.38;96676.50;10498598;28;20191;-66
2023/05/04 13:33:11;;;;;;;5.55;2.10;;;;;;;23.51;32.45;96642.25;10492382;28;20268;-65
2023/05/04 13:38:11;;;;;;;7.38;2.17;;;;;;;21.88;36.54;96688.47;10493041;28;20195;-66
2023/05/04 13:43:11;;;;;;;5.97;2.28;;;;;;;23.76;34.96;96705.28;10492736;28;20214;-66
2023/05/04 13:48:12;;;;;;;4.82;2.30;;;;;;;23.86;31.25;96584.28;10491423;28;20297;-66
2023/05/04 13:53:12;;;;;;;6.73;1.97;;;;;;;26.21;30.04;96638.06;10492215;28;20219;-66
2023/05/04 13:58:12;;;;;;;5.93;2.20;;;;;;;25.88;30.00;96607.78;10492787;28;20457;-66
2023/05/04 14:03:13;;;;;;;6.20;2.20;;;;;;;25.28;31.80;96629.22;10491427;28;20446;-65
2023/05/04 14:08:13;;;;;;;8.03;2.20;;;;;;;26.12;28.78;96572.50;10492377;28;20447;-67
2023/05/04 14:13:13;;;;;;;5.50;1.90;;;;;;;24.36;27.10;96424.59;10491868;28;20516;-65
2023/05/04 14:18:14;;;;;;;3.93;1.40;;;;;;;23.33;28.22;96426.75;10490733;28;20449;-66
2023/05/04 14:23:15;;;;;;;4.65;2.10;;;;;;;25.87;28.03;96517.56;10492200;28;20464;-67
2023/05/04 14:28:15;;;;;;;5.43;2.17;;;;;;;25.36;29.72;96550.22;10491561;28;20252;-67
2023/05/04 14:33:15;;;;;;;6.65;2.00;;;;;;;25.71;29.82;96559.59;10492088;28;20223;-66
2023/05/04 14:38:16;;;;;;;9.03;2.17;;;;;;;27.58;27.77;96563.56;10491442;28;20281;-67
2023/05/04 14:43:16;;;;;;;4.47;2.10;;;;;;;26.67;27.59;96525.50;10494447;28;20457;-66
2023/05/04 14:48:17;;;;;;;4.17;1.70;;;;;;;26.25;28.75;96537.13;10499162;28;20441;-67
2023/05/04 14:53:17;;;;;;;6.20;1.80;;;;;;;24.68;29.58;96477.44;10497608;28;20560;-66
2023/05/04 14:58:18;;;;;;;7.40;2.25;;;;;;;25.05;31.13;96554.44;10498958;28;20199;-67
2023/05/04 15:03:18;;;;;;;5.35;2.00;;;;;;;24.53;31.98;96542.31;10488666;28;20217;-65
2023/05/04 15:08:18;;;;;;;5.07;2.00;;;;;;;23.05;32.15;96491.78;10473199;28;20196;-65
2023/05/04 15:13:19;;;;;;;8.23;2.37;;;;;;;22.11;33.25;96506.25;10458361;28;20512;-66
2023/05/04 15:18:20;;;;;;;5.78;2.08;;;;;;;22.51;33.24;96516.19;10456746;28;20446;-66
2023/05/04 15:23:20;;;;;;;9.95;2.28;;;;;;;21.87;33.57;96489.50;10470634;28;20204;-67
2023/05/04 15:28:21;;;;;;;6.25;1.92;;;;;;;23.55;32.36;96532.16;10474993;28;21118;-66
2023/05/04 15:33:22;;;;;;;3.08;1.92;;;;;;;22.92;34.07;96556.19;10476508;28;20224;-66
2023/05/04 15:38:22;;;;;;;4.57;1.90;;;;;;;22.71;35.25;96571.84;10474174;28;20640;-66
2023/05/04 15:43:22;;;;;;;5.00;2.35;;;;;;;20.07;33.58;96405.19;10474035;28;20587;-65
2023/05/04 15:48:23;;;;;;;5.45;1.88;;;;;;;19.72;34.63;96425.19;10474280;28;20289;-65
2023/05/04 15:53:23;;;;;;;5.00;2.03;;;;;;;19.27;34.63;96419.34;10470994;28;20599;-64
2023/05/04 15:58:23;;;;;;;4.28;2.05;;;;;;;18.25;35.83;96414.94;10475449;28;20608;-65
2023/05/04 16:03:24;;;;;;;6.60;2.00;;;;;;;17.71;36.49;96430.22;10462804;28;20616;-65
2023/05/04 16:08:25;;;;;;;5.05;1.70;;;;;;;18.29;36.43;96445.31;10468992;28;20718;-65
2023/05/04 16:13:25;;;;;;;8.00;2.20;;;;;;;17.89;37.11;96453.44;10474750;28;20234;-64
2023/05/04 16:18:25;;;;;;;5.72;2.00;;;;;;;18.59;36.73;96466.78;10483729;28;20214;-64
2023/05/04 16:23:26;;;;;;;4.35;1.90;;;;;;;18.78;35.09;96430.50;10465058;28;20211;-65
2023/05/04 16:28:27;;;;;;;4.80;1.75;;;;;;;17.97;36.35;96432.00;10455339;28;20192;-64
2023/05/04 16:33:27;;;;;;;10.60;2.10;;;;;;;17.33;37.64;96431.72;10485871;28;20221;-65
2023/05/04 16:38:28;;;;;;;4.47;2.00;;;;;;;16.55;36.75;96382.88;10489328;28;20184;-66
2023/05/04 16:43:28;;;;;;;5.60;1.95;;;;;;;16.51;37.72;96416.03;10459900;28;20210;-66
2023/05/04 16:48:28;;;;;;;6.63;2.28;;;;;;;16.80;38.44;96452.88;10462901;28;20184;-66
2023/05/04 16:53:29;;;;;;;8.05;2.22;;;;;;;16.75;39.30;96472.84;10462621;28;20231;-67
2023/05/04 16:58:29;;;;;;;5.53;2.05;;;;;;;16.65;40.14;96490.13;10453794;28;20199;-65
2023/05/04 17:03:31;;;;;;;4.13;2.05;;;;;;;16.27;41.72;96509.13;10453745;28;20215;-65
2023/05/04 17:08:33;;;;;;;9.77;2.13;;;;;;;16.47;41.33;96517.91;10453300;28;20275;-65
2023/05/04 17:13:33;;;;;;;5.25;2.38;;;;;;;16.86;42.16;96553.47;10493871;22;20243;-66
2023/05/04 17:18:34;;;;;;;4.70;2.38;;;;;;;16.67;42.12;96548.91;10494154;28;20207;-65
2023/05/04 17:23:34;;;;;;;13.75;2.22;;;;;;;17.05;40.90;96536.00;10494179;28;20246;-65
2023/05/04 17:28:34;;;;;;;4.97;2.70;;;;;;;16.78;41.63;96540.38;10494532;28;20203;-65
2023/05/04 17:33:35;;;;;;;5.65;2.15;;;;;;;16.53;44.03;96593.00;10493764;28;20225;-66
2023/05/04 17:38:35;;;;;;;5.15;2.67;;;;;;;15.93;44.42;96587.41;10494250;28;20231;-67
2023/05/04 17:43:36;;;;;;;4.53;2.50;;;;;;;15.56;45.00;96587.53;10493827;28;20211;-67
2023/05/04 17:48:36;;;;;;;4.82;2.60;;;;;;;15.25;45.04;96583.41;10493725;28;20191;-67
2023/05/04 17:53:37;;;;;;;4.88;2.25;;;;;;;14.97;45.97;96602.59;10493487;28;20719;-67
2023/05/04 17:58:37;;;;;;;9.95;2.70;;;;;;;14.74;46.69;96628.31;10482861;28;20194;-67
2023/05/04 18:03:37;;;;;;;8.85;2.40;;;;;;;14.61;46.89;96637.69;10470789;28;20242;-68
2023/05/04 18:08:38;;;;;;;6.53;2.47;;;;;;;14.39;48.81;96689.47;10469433;28;20198;-68
2023/05/04 18:13:38;;;;;;;4.45;2.30;;;;;;;13.80;51.07;96718.31;10470765;28;20239;-67
2023/05/04 18:18:39;;;;;;;4.20;2.47;;;;;;;13.30;53.03;96746.75;10493693;28;20222;-68
2023/05/04 18:23:39;;;;;;;7.03;2.65;;;;;;;13.24;53.37;96756.16;10500764;28;20241;-68
2023/05/04 18:28:40;;;;;;;8.38;2.53;;;;;;;13.03;54.48;96772.53;10500946;28;21033;-67
2023/05/04 18:33:40;;;;;;;6.57;2.97;;;;;;;12.88;56.58;96809.25;10500409;28;20606;-66
2023/05/04 18:38:41;;;;;;;19.65;13.75;;;;;;;12.12;59.15;96834.91;10494022;28;20694;-66
2023/05/04 18:43:41;;;;;;;6.95;3.10;;;;;;;12.32;60.46;96849.38;10500205;28;20235;-67
2023/05/04 18:48:41;;;;;;;12.45;3.15;;;;;;;11.76;61.86;96846.50;10500098;28;20194;-67
2023/05/04 18:53:42;;;;;;;7.13;3.15;;;;;;;11.70;61.69;96843.66;10499592;28;20298;-67
2023/05/04 18:58:42;;;;;;;11.25;3.45;;;;;;;11.36;63.89;96855.03;10499865;28;20202;-67
2023/05/04 19:03:46;;;;;;;6.13;3.13;;;;;;;11.13;64.69;96849.53;10499106;28;20218;-66
2023/05/04 19:08:46;;;;;;;9.50;3.60;;;;;;;10.77;65.31;96847.88;10499198;28;20183;-66
2023/05/04 19:13:47;;;;;;;13.40;3.83;;;;;;;10.66;66.30;96843.72;10498472;28;20239;-66
2023/05/04 19:18:48;;;;;;;9.67;3.43;;;;;;;10.46;67.12;96840.47;10499019;28;20196;-66
2023/05/04 19:23:48;;;;;;;7.87;3.40;;;;;;;10.27;67.84;96841.41;10498621;28;20214;-66
2023/05/04 19:28:48;;;;;;;13.73;3.67;;;;;;;9.98;69.43;96847.72;10497974;28;20193;-66
2023/05/04 19:33:49;;;;;;;8.70;3.40;;;;;;;9.84;70.07;96842.19;10475545;28;20219;-67
2023/05/04 19:38:49;;;;;;;10.43;3.10;;;;;;;9.64;70.38;96844.91;10475015;28;20619;-65
2023/05/04 19:43:50;;;;;;;7.10;3.70;;;;;;;9.45;71.22;96835.41;10476390;28;20219;-66
2023/05/04 19:48:50;;;;;;;7.20;3.63;;;;;;;9.40;70.50;96822.78;10476225;28;20274;-65
2023/05/04 19:53:50;;;;;;;8.77;3.73;;;;;;;9.24;71.75;96820.78;10482342;28;20219;-66
2023/05/04 19:58:51;;;;;;;7.00;3.40;;;;;;;9.09;71.83;96823.03;10497549;28;20195;-66
2023/05/04 20:03:52;;;;;;;10.23;3.70;;;;;;;8.84;72.33;96831.56;10496700;28;20690;-66
2023/05/04 20:08:53;;;;;;;10.67;3.37;;;;;;;8.84;72.50;96819.31;10493872;28;20654;-65
2023/05/04 20:13:54;;;;;;;9.33;3.00;;;;;;;8.67;73.03;96817.44;10482288;28;20270;-65
2023/05/04 20:18:54;;;;;;;4.47;2.43;;;;;;;8.51;73.29;96824.03;10496391;28;20195;-66
2023/05/04 20:23:56;;;;;;;8.63;3.57;;;;;;;8.37;74.38;96824.47;10495947;28;20258;-65
2023/05/04 20:28:56;;;;;;;11.00;3.83;;;;;;;8.24;74.74;96816.09;10495909;28;20693;-66
2023/05/04 20:33:56;;;;;;;6.57;3.23;;;;;;;8.20;74.71;96813.75;10493678;28;20318;-66
2023/05/04 20:38:57;;;;;;;7.03;3.13;;;;;;;8.04;74.72;96816.13;10484514;28;20192;-65
2023/05/04 20:43:57;;;;;;;7.73;3.00;;;;;;;8.00;75.14;96815.56;10495002;28;20211;-65
2023/05/04 20:48:58;;;;;;;9.83;3.57;;;;;;;8.00;74.96;96809.53;10495646;28;20274;-66
2023/05/04 20:53:58;;;;;;;9.93;3.10;;;;;;;8.00;74.43;96796.50;10495020;28;20219;-65
2023/05/04 20:58:58;;;;;;;9.13;3.07;;;;;;;7.93;74.63;96798.00;10495585;28;20287;-66
2023/05/04 21:03:59;;;;;;;9.07;3.10;;;;;;;7.91;74.24;96797.31;10494758;28;20269;-66
2023/05/04 21:09:00;;;;;;;7.70;2.87;;;;;;;7.84;74.32;96797.88;10494981;28;20195;-66
2023/05/04 21:14:01;;;;;;;3.67;2.53;;;;;;;7.85;73.69;96789.06;10494512;28;20239;-65
2023/05/04 21:19:01;;;;;;;5.27;3.00;;;;;;;7.77;73.57;96782.91;10494811;28;20195;-66
2023/05/04 21:24:01;;;;;;;4.20;2.67;;;;;;;7.85;72.77;96770.81;10494715;28;20235;-66
2023/05/04 21:29:02;;;;;;;9.40;3.00;;;;;;;7.83;73.01;96769.31;10494379;28;20190;-66
2023/05/04 21:34:02;;;;;;;6.83;3.10;;;;;;;7.80;72.68;96759.16;10494155;28;20261;-66
2023/05/04 21:39:02;;;;;;;4.90;3.03;;;;;;;7.73;72.86;96761.47;10494015;28;20215;-65
2023/05/04 21:44:03;;;;;;;5.83;3.03;;;;;;;7.59;73.92;96767.13;10494030;28;20211;-65
2023/05/04 21:49:03;;;;;;;7.60;3.17;;;;;;;7.51;74.04;96762.59;10493770;28;20252;-65
2023/05/04 21:54:04;;;;;;;5.10;2.80;;;;;;;7.56;73.73;96767.38;10493632;28;20227;-65
2023/05/04 21:59:04;;;;;;;7.87;3.07;;;;;;;7.63;72.80;96752.84;10493888;28;20242;-65
2023/05/04 22:04:05;;;;;;;9.53;3.47;;;;;;;7.52;73.36;96756.41;10493584;28;20274;-65
2023/05/04 22:09:06;;;;;;;4.80;2.60;;;;;;;7.61;73.09;96752.16;10476926;28;20187;-65
2023/05/04 22:14:06;;;;;;;9.13;3.00;;;;;;;7.68;72.13;96745.44;10453928;28;20713;-66
2023/05/04 22:19:06;;;;;;;6.53;2.80;;;;;;;7.62;72.31;96738.97;10452031;28;20212;-65
2023/05/04 22:24:07;;;;;;;6.23;3.10;;;;;;;7.59;72.14;96735.84;10451700;28;20207;-65
2023/05/04 22:29:07;;;;;;;3.40;2.60;;;;;;;7.65;71.51;96732.66;10451977;28;20209;-65
2023/05/04 22:34:07;;;;;;;15.20;3.50;;;;;;;7.73;71.26;96724.16;10451302;28;20251;-65
2023/05/04 22:39:08;;;;;;;5.93;2.63;;;;;;;7.75;70.88;96720.47;10451622;28;20203;-65
2023/05/04 22:44:08;;;;;;;5.73;3.17;;;;;;;7.90;70.18;96715.66;10451383;28;20220;-65
2023/05/04 22:49:08;;;;;;;7.10;2.87;;;;;;;7.74;71.11;96726.63;10451408;28;20254;-65
2023/05/04 22:54:09;;;;;;;7.57;2.80;;;;;;;7.73;71.31;96740.63;10451286;28;20227;-65
2023/05/04 22:59:10;;;;;;;5.20;2.70;;;;;;;7.79;71.10;96742.66;10451047;28;20192;-65
2023/05/04 23:04:10;;;;;;;7.50;3.53;;;;;;;7.75;71.46;96738.72;10454069;28;20204;-65
2023/05/04 23:09:11;;;;;;;6.23;3.17;;;;;;;7.79;71.38;96740.06;10458380;28;20213;-65
2023/05/04 23:14:11;;;;;;;8.63;2.93;;;;;;;7.80;71.89;96743.53;10468151;23;20248;-64
2023/05/04 23:19:12;;;;;;;8.43;3.00;;;;;;;7.76;71.61;96740.34;10458028;28;20312;-64